Terminal Aerodrome Forecast
Issued by NWS Boston, MA

Home | Current Version | Previous Version | Text Only | Print | Product List | Glossary On
Versions: 1 2 3 4 5 6 7 8 9 10 11 12 13 14 15 16
000
FTUS41 KBOX 281731 AAA
TAFORH
TAF AMD
KORH 281731Z 2818/2918 06009G20KT P6SM -DZ BKN008 OVC015
     FM290200 05012KT 2SM BR OVC008
     FM291400 05010G19KT P6SM -DZ BKN020=

USA.gov is the U.S. government's official web portal to all federal, state and local government web resources and services.